Terminal Aerodrome Forecast
Issued by NWS

Home | Current Version | Previous Version | Text Only | Print | Product List | Glossary On
Versions: 1 2 3 4 5 6 7 8 9 10 11 12 13 14 15 16 17 18 19
000
FTUS43 KGRB 292320
TAFAUW
TAF
KAUW 292320Z 3000/3024 28011G17KT P6SM BKN050
     FM300200 26006KT P6SM SCT045
     FM300500 26004KT P6SM FEW150
      TEMPO 3007/3011 3SM BR
     FM301600 29008KT P6SM FEW250=

USA.gov is the U.S. government's official web portal to all federal, state and local government web resources and services.